createdAt,value
2022-09-23T00:09:49.727Z,15.30
2022-09-23T00:19:49.722Z,14.30
2022-09-23T00:29:49.763Z,15.10
2022-09-23T00:39:49.743Z,14.90
2022-09-23T00:49:49.737Z,14.80
2022-09-23T00:59:49.755Z,15.00
2022-09-23T01:09:49.751Z,13.80
2022-09-23T01:19:49.792Z,13.80
2022-09-23T01:29:49.834Z,14.60
2022-09-23T01:39:49.789Z,13.70
2022-09-23T01:49:50.911Z,14.70
2022-09-23T01:59:49.760Z,13.90
2022-09-23T02:09:49.864Z,13.50
2022-09-23T02:19:49.789Z,15.00
2022-09-23T02:29:49.862Z,13.80
2022-09-23T02:39:49.809Z,14.30
2022-09-23T02:49:49.827Z,14.90
2022-09-23T02:59:49.782Z,15.50
2022-09-23T03:09:49.797Z,15.50
2022-09-23T03:19:49.784Z,14.70
2022-09-23T03:29:49.832Z,15.90
2022-09-23T03:39:49.801Z,15.20
2022-09-23T03:49:49.806Z,14.50
2022-09-23T03:59:49.807Z,15.00
2022-09-23T04:09:49.809Z,16.50
2022-09-23T04:19:49.803Z,16.10
2022-09-23T04:29:49.842Z,15.90
2022-09-23T04:39:49.826Z,15.10
2022-09-23T04:49:49.826Z,15.30
2022-09-23T04:59:49.814Z,15.70
2022-09-23T05:09:49.821Z,16.60
2022-09-23T05:19:49.837Z,15.30
2022-09-23T05:29:49.880Z,15.00
2022-09-23T05:39:49.839Z,15.20
2022-09-23T05:49:59.591Z,14.80
2022-09-23T05:59:49.838Z,14.20
2022-09-23T06:09:49.850Z,14.50
2022-09-23T06:19:49.842Z,14.70
2022-09-23T06:29:49.887Z,10.90
2022-09-23T06:39:49.859Z,5.00
2022-09-23T06:49:49.855Z,6.50
2022-09-23T06:59:49.871Z,2.90
2022-09-23T07:09:49.875Z,4.10
2022-09-23T07:19:49.871Z,5.70
2022-09-23T07:29:49.920Z,5.20
2022-09-23T07:39:49.878Z,5.80
2022-09-23T07:49:49.879Z,7.30
2022-09-23T07:59:49.884Z,5.80
2022-09-23T08:19:49.892Z,4.90
2022-09-23T08:29:49.937Z,5.40
2022-09-23T08:39:49.899Z,4.80
2022-09-23T08:49:49.899Z,3.90
2022-09-23T08:59:49.908Z,4.20
2022-09-23T09:09:49.906Z,3.30
2022-09-23T09:19:49.917Z,4.30
2022-09-23T09:29:50.305Z,3.30
2022-09-23T09:39:49.932Z,1.50
2022-09-23T09:49:49.938Z,1.40
2022-09-23T09:59:49.878Z,2.00
2022-09-23T10:09:49.917Z,2.20
2022-09-23T10:19:49.884Z,2.20
2022-09-23T10:29:49.923Z,3.00
2022-09-23T10:39:49.901Z,2.10
2022-09-23T10:49:49.915Z,1.50
2022-09-23T10:59:49.924Z,1.20
2022-09-23T11:09:49.922Z,1.50
2022-09-23T11:19:49.937Z,1.20
2022-09-23T11:29:49.978Z,1.50
2022-09-23T11:39:49.941Z,1.60
2022-09-23T11:49:49.945Z,1.40
2022-09-23T11:59:49.973Z,1.60
2022-09-23T12:09:58.063Z,2.90
2022-09-23T12:19:49.966Z,1.10
2022-09-23T12:29:50.019Z,1.40
2022-09-23T12:39:49.976Z,1.40
2022-09-23T12:49:49.988Z,2.00
2022-09-23T12:59:49.987Z,1.20
2022-09-23T13:09:49.993Z,1.70
2022-09-23T13:19:49.996Z,1.30
2022-09-23T13:29:50.050Z,1.80
2022-09-23T13:39:50.022Z,1.40
2022-09-23T13:49:50.023Z,5.90
2022-09-23T13:59:50.024Z,1.30
2022-09-23T14:09:50.046Z,1.20
2022-09-23T14:19:50.040Z,2.30
2022-09-23T14:29:50.080Z,2.70
2022-09-23T14:39:52.518Z,1.30
2022-09-23T14:49:50.065Z,1.00
2022-09-23T14:59:50.072Z,2.20
2022-09-23T15:09:50.063Z,1.10
2022-09-23T15:19:50.075Z,0.70
2022-09-23T15:29:50.181Z,1.00
2022-09-23T15:39:50.093Z,1.10
2022-09-23T15:49:50.094Z,1.20
2022-09-23T15:59:50.088Z,1.10
2022-09-23T16:09:50.091Z,1.00
2022-09-23T16:19:50.132Z,1.10
2022-09-23T16:29:50.140Z,1.30
2022-09-23T16:39:50.113Z,2.50
2022-09-23T16:49:50.153Z,1.30
2022-09-23T16:59:50.178Z,1.20
2022-09-23T17:09:50.119Z,1.20
2022-09-23T17:19:50.155Z,1.50
2022-09-23T17:29:50.202Z,1.30
2022-09-23T17:39:50.259Z,1.30
2022-09-23T17:49:50.175Z,2.30
2022-09-23T17:59:50.207Z,1.30
2022-09-23T18:09:50.197Z,1.50
2022-09-23T18:19:50.213Z,1.60
2022-09-23T18:29:50.251Z,2.00
2022-09-23T18:39:50.259Z,2.00
2022-09-23T18:49:50.240Z,2.00
2022-09-23T18:59:50.254Z,2.20
2022-09-23T19:09:50.271Z,2.80
2022-09-23T19:19:50.229Z,2.70
2022-09-23T19:29:50.279Z,3.80
2022-09-23T19:39:50.409Z,3.60
2022-09-23T19:49:50.339Z,3.90
2022-09-23T19:59:50.243Z,3.80
2022-09-23T20:09:50.301Z,3.60
2022-09-23T20:19:50.209Z,3.50
2022-09-23T20:29:50.198Z,3.40
2022-09-23T20:39:50.273Z,3.00
2022-09-23T20:49:50.207Z,3.10
2022-09-23T20:59:50.214Z,3.10
2022-09-23T21:09:50.225Z,4.10
2022-09-23T21:19:50.206Z,3.90
2022-09-23T21:29:50.213Z,3.80
2022-09-23T21:39:50.268Z,3.70
2022-09-23T21:49:51.006Z,4.00
2022-09-23T21:59:50.226Z,3.50
2022-09-23T22:09:50.233Z,3.20
2022-09-23T22:19:50.223Z,3.30
2022-09-23T22:29:50.240Z,3.50
2022-09-23T22:39:50.270Z,4.70
2022-09-23T22:49:50.242Z,3.50
2022-09-23T22:59:50.241Z,5.20
2022-09-23T23:09:50.258Z,3.40
2022-09-23T23:19:50.251Z,4.80
2022-09-23T23:29:50.260Z,5.60
2022-09-23T23:39:50.310Z,5.50
2022-09-23T23:49:50.254Z,6.90
2022-09-23T23:59:50.257Z,6.60
